sensor_id;sensor_type;location;lat;lon;timestamp;P1;durP1;ratioP1;P2;durP2;ratioP2
73672;SDS011;61972;19.480;-99.240;2023-01-16T00:01:25;15.32;;;10.90;;
73672;SDS011;61972;19.480;-99.240;2023-01-16T00:03:52;17.83;;;11.93;;
73672;SDS011;61972;19.480;-99.240;2023-01-16T00:06:18;16.08;;;12.60;;
73672;SDS011;61972;19.480;-99.240;2023-01-16T00:08:44;16.80;;;11.13;;
73672;SDS011;61972;19.480;-99.240;2023-01-16T00:11:12;15.00;;;11.15;;
73672;SDS011;61972;19.480;-99.240;2023-01-16T00:13:39;13.98;;;10.82;;
73672;SDS011;61972;19.480;-99.240;2023-01-16T00:16:05;15.23;;;11.40;;
73672;SDS011;61972;19.480;-99.240;2023-01-16T00:18:32;15.50;;;11.88;;
73672;SDS011;61972;19.480;-99.240;2023-01-16T00:20:59;15.60;;;11.43;;
73672;SDS011;61972;19.480;-99.240;2023-01-16T00:23:25;15.85;;;10.90;;
73672;SDS011;61972;19.480;-99.240;2023-01-16T00:25:51;15.00;;;11.05;;
73672;SDS011;61972;19.480;-99.240;2023-01-16T00:28:17;14.52;;;11.95;;
73672;SDS011;61972;19.480;-99.240;2023-01-16T00:30:44;15.00;;;10.95;;
73672;SDS011;61972;19.480;-99.240;2023-01-16T00:33:10;14.60;;;11.30;;
73672;SDS011;61972;19.480;-99.240;2023-01-16T00:35:37;16.10;;;11.95;;
73672;SDS011;61972;19.480;-99.240;2023-01-16T00:38:03;13.27;;;10.80;;
73672;SDS011;61972;19.480;-99.240;2023-01-16T00:40:29;15.07;;;11.18;;
73672;SDS011;61972;19.480;-99.240;2023-01-16T00:42:55;14.32;;;10.80;;
73672;SDS011;61972;19.480;-99.240;2023-01-16T00:45:22;13.77;;;10.23;;
73672;SDS011;61972;19.480;-99.240;2023-01-16T00:47:48;13.77;;;10.68;;
73672;SDS011;61972;19.480;-99.240;2023-01-16T00:50:14;15.15;;;11.07;;
73672;SDS011;61972;19.480;-99.240;2023-01-16T00:52:40;12.45;;;10.38;;
73672;SDS011;61972;19.480;-99.240;2023-01-16T00:55:06;15.65;;;10.82;;
73672;SDS011;61972;19.480;-99.240;2023-01-16T00:57:32;15.63;;;10.97;;
73672;SDS011;61972;19.480;-99.240;2023-01-16T00:59:58;13.55;;;10.18;;
73672;SDS011;61972;19.480;-99.240;2023-01-16T01:02:24;14.13;;;10.60;;
73672;SDS011;61972;19.480;-99.240;2023-01-16T01:04:50;13.25;;;9.90;;
73672;SDS011;61972;19.480;-99.240;2023-01-16T01:07:17;14.13;;;9.82;;
73672;SDS011;61972;19.480;-99.240;2023-01-16T01:09:43;14.83;;;9.87;;
73672;SDS011;61972;19.480;-99.240;2023-01-16T01:12:09;15.60;;;10.02;;
73672;SDS011;61972;19.480;-99.240;2023-01-16T01:14:35;13.15;;;9.48;;
73672;SDS011;61972;19.480;-99.240;2023-01-16T01:17:01;14.80;;;9.75;;
73672;SDS011;61972;19.480;-99.240;2023-01-16T01:19:27;13.15;;;9.43;;
73672;SDS011;61972;19.480;-99.240;2023-01-16T01:21:53;12.43;;;9.30;;
73672;SDS011;61972;19.480;-99.240;2023-01-16T01:24:19;12.65;;;9.80;;
73672;SDS011;61972;19.480;-99.240;2023-01-16T01:26:45;12.02;;;9.57;;
73672;SDS011;61972;19.480;-99.240;2023-01-16T01:29:11;16.05;;;10.00;;
73672;SDS011;61972;19.480;-99.240;2023-01-16T01:31:37;12.38;;;9.75;;
73672;SDS011;61972;19.480;-99.240;2023-01-16T01:34:04;11.23;;;9.07;;
73672;SDS011;61972;19.480;-99.240;2023-01-16T01:36:30;11.68;;;8.80;;
73672;SDS011;61972;19.480;-99.240;2023-01-16T01:38:56;13.15;;;9.02;;
73672;SDS011;61972;19.480;-99.240;2023-01-16T01:41:22;12.70;;;9.32;;
73672;SDS011;61972;19.480;-99.240;2023-01-16T01:43:49;13.00;;;9.20;;
73672;SDS011;61972;19.480;-99.240;2023-01-16T01:48:55;11.80;;;8.68;;
73672;SDS011;61972;19.480;-99.240;2023-01-16T01:51:27;11.13;;;9.10;;
73672;SDS011;61972;19.480;-99.240;2023-01-16T01:53:59;13.30;;;9.32;;
73672;SDS011;61972;19.480;-99.240;2023-01-16T01:56:43;11.50;;;8.73;;
73672;SDS011;61972;19.480;-99.240;2023-01-16T01:59:16;10.80;;;8.50;;
73672;SDS011;61972;19.480;-99.240;2023-01-16T02:01:47;12.35;;;8.73;;
73672;SDS011;61972;19.480;-99.240;2023-01-16T02:04:18;13.82;;;9.18;;
73672;SDS011;61972;19.480;-99.240;2023-01-16T02:06:50;12.32;;;8.55;;
73672;SDS011;61972;19.480;-99.240;2023-01-16T02:09:21;12.32;;;8.70;;
73672;SDS011;61972;19.480;-99.240;2023-01-16T02:11:54;10.97;;;8.83;;
73672;SDS011;61972;19.480;-99.240;2023-01-16T02:14:31;11.75;;;8.95;;
73672;SDS011;61972;19.480;-99.240;2023-01-16T02:17:05;11.32;;;8.35;;
73672;SDS011;61972;19.480;-99.240;2023-01-16T02:25:29;11.53;;;8.70;;
73672;SDS011;61972;19.480;-99.240;2023-01-16T02:52:51;12.67;;;9.10;;
73672;SDS011;61972;19.480;-99.240;2023-01-16T02:55:21;12.57;;;8.90;;
73672;SDS011;61972;19.480;-99.240;2023-01-16T02:57:49;12.30;;;9.18;;
73672;SDS011;61972;19.480;-99.240;2023-01-16T03:00:19;11.82;;;8.45;;
73672;SDS011;61972;19.480;-99.240;2023-01-16T03:02:46;12.27;;;8.73;;
73672;SDS011;61972;19.480;-99.240;2023-01-16T03:05:13;12.67;;;9.73;;
73672;SDS011;61972;19.480;-99.240;2023-01-16T03:13:36;13.80;;;8.95;;
73672;SDS011;61972;19.480;-99.240;2023-01-16T03:16:34;12.90;;;9.10;;
73672;SDS011;61972;19.480;-99.240;2023-01-16T03:19:43;14.23;;;8.97;;
73672;SDS011;61972;19.480;-99.240;2023-01-16T03:22:14;12.20;;;8.55;;
73672;SDS011;61972;19.480;-99.240;2023-01-16T03:28:00;14.15;;;8.98;;
73672;SDS011;61972;19.480;-99.240;2023-01-16T03:33:29;18.37;;;9.10;;
73672;SDS011;61972;19.480;-99.240;2023-01-16T03:36:52;16.42;;;8.82;;
73672;SDS011;61972;19.480;-99.240;2023-01-16T03:39:03;13.88;;;9.15;;
73672;SDS011;61972;19.480;-99.240;2023-01-16T03:41:32;14.77;;;9.07;;
73672;SDS011;61972;19.480;-99.240;2023-01-16T03:44:02;11.48;;;9.13;;
73672;SDS011;61972;19.480;-99.240;2023-01-16T03:46:36;12.03;;;8.90;;
73672;SDS011;61972;19.480;-99.240;2023-01-16T03:49:12;12.27;;;8.90;;
73672;SDS011;61972;19.480;-99.240;2023-01-16T03:51:44;11.93;;;8.70;;
73672;SDS011;61972;19.480;-99.240;2023-01-16T03:59:45;12.03;;;9.27;;
73672;SDS011;61972;19.480;-99.240;2023-01-16T04:02:19;13.18;;;9.10;;
73672;SDS011;61972;19.480;-99.240;2023-01-16T04:04:53;13.48;;;9.38;;
73672;SDS011;61972;19.480;-99.240;2023-01-16T04:07:37;13.85;;;9.40;;
73672;SDS011;61972;19.480;-99.240;2023-01-16T04:10:10;18.70;;;9.77;;
73672;SDS011;61972;19.480;-99.240;2023-01-16T04:12:47;14.03;;;9.50;;
73672;SDS011;61972;19.480;-99.240;2023-01-16T04:15:18;14.57;;;9.60;;
73672;SDS011;61972;19.480;-99.240;2023-01-16T04:17:46;16.13;;;9.85;;
73672;SDS011;61972;19.480;-99.240;2023-01-16T04:20:12;15.15;;;10.00;;
73672;SDS011;61972;19.480;-99.240;2023-01-16T04:22:38;13.43;;;9.60;;
73672;SDS011;61972;19.480;-99.240;2023-01-16T04:25:06;12.37;;;9.03;;
73672;SDS011;61972;19.480;-99.240;2023-01-16T04:27:33;16.38;;;9.90;;
73672;SDS011;61972;19.480;-99.240;2023-01-16T04:30:00;15.45;;;9.50;;
73672;SDS011;61972;19.480;-99.240;2023-01-16T04:32:26;13.20;;;9.88;;
73672;SDS011;61972;19.480;-99.240;2023-01-16T04:34:52;14.20;;;9.20;;
73672;SDS011;61972;19.480;-99.240;2023-01-16T04:37:18;12.77;;;9.00;;
73672;SDS011;61972;19.480;-99.240;2023-01-16T04:39:44;14.27;;;9.50;;
73672;SDS011;61972;19.480;-99.240;2023-01-16T04:42:12;14.07;;;9.40;;
73672;SDS011;61972;19.480;-99.240;2023-01-16T04:44:38;14.48;;;9.70;;
73672;SDS011;61972;19.480;-99.240;2023-01-16T04:47:05;13.93;;;9.60;;
73672;SDS011;61972;19.480;-99.240;2023-01-16T04:49:31;15.37;;;9.40;;
73672;SDS011;61972;19.480;-99.240;2023-01-16T04:51:57;17.00;;;9.65;;
73672;SDS011;61972;19.480;-99.240;2023-01-16T04:54:23;14.35;;;9.23;;
73672;SDS011;61972;19.480;-99.240;2023-01-16T04:56:49;12.63;;;9.20;;
73672;SDS011;61972;19.480;-99.240;2023-01-16T04:59:15;14.57;;;9.48;;
73672;SDS011;61972;19.480;-99.240;2023-01-16T05:01:43;16.80;;;9.60;;
73672;SDS011;61972;19.480;-99.240;2023-01-16T05:04:10;13.27;;;9.57;;
73672;SDS011;61972;19.480;-99.240;2023-01-16T05:06:37;14.13;;;9.20;;
73672;SDS011;61972;19.480;-99.240;2023-01-16T05:09:03;14.50;;;10.02;;
73672;SDS011;61972;19.480;-99.240;2023-01-16T05:11:31;15.88;;;9.60;;
73672;SDS011;61972;19.480;-99.240;2023-01-16T05:13:57;15.17;;;9.77;;
73672;SDS011;61972;19.480;-99.240;2023-01-16T05:16:24;12.43;;;9.52;;
73672;SDS011;61972;19.480;-99.240;2023-01-16T05:18:50;13.52;;;9.90;;
73672;SDS011;61972;19.480;-99.240;2023-01-16T05:21:17;16.85;;;10.20;;
73672;SDS011;61972;19.480;-99.240;2023-01-16T05:23:43;17.02;;;10.10;;
73672;SDS011;61972;19.480;-99.240;2023-01-16T05:26:09;13.73;;;9.47;;
73672;SDS011;61972;19.480;-99.240;2023-01-16T05:28:35;13.63;;;9.43;;
73672;SDS011;61972;19.480;-99.240;2023-01-16T05:31:02;14.75;;;9.10;;
73672;SDS011;61972;19.480;-99.240;2023-01-16T05:33:28;15.63;;;10.52;;
73672;SDS011;61972;19.480;-99.240;2023-01-16T05:35:55;12.85;;;9.77;;
73672;SDS011;61972;19.480;-99.240;2023-01-16T05:38:21;14.90;;;9.33;;
73672;SDS011;61972;19.480;-99.240;2023-01-16T05:40:47;13.80;;;9.73;;
73672;SDS011;61972;19.480;-99.240;2023-01-16T05:43:13;13.20;;;9.50;;
73672;SDS011;61972;19.480;-99.240;2023-01-16T05:45:40;14.35;;;9.73;;
73672;SDS011;61972;19.480;-99.240;2023-01-16T05:48:06;18.20;;;9.95;;
73672;SDS011;61972;19.480;-99.240;2023-01-16T05:50:32;13.30;;;9.37;;
73672;SDS011;61972;19.480;-99.240;2023-01-16T05:52:58;13.75;;;9.73;;
73672;SDS011;61972;19.480;-99.240;2023-01-16T05:55:24;12.90;;;9.50;;
73672;SDS011;61972;19.480;-99.240;2023-01-16T05:57:50;18.27;;;9.47;;
73672;SDS011;61972;19.480;-99.240;2023-01-16T06:00:17;14.10;;;9.52;;
73672;SDS011;61972;19.480;-99.240;2023-01-16T06:02:43;14.60;;;9.80;;
73672;SDS011;61972;19.480;-99.240;2023-01-16T06:05:11;16.45;;;10.45;;
73672;SDS011;61972;19.480;-99.240;2023-01-16T06:07:38;13.57;;;9.35;;
73672;SDS011;61972;19.480;-99.240;2023-01-16T06:10:07;17.33;;;10.20;;
73672;SDS011;61972;19.480;-99.240;2023-01-16T06:12:34;16.42;;;9.93;;
73672;SDS011;61972;19.480;-99.240;2023-01-16T06:15:00;16.58;;;10.20;;
73672;SDS011;61972;19.480;-99.240;2023-01-16T06:17:27;16.63;;;9.55;;
73672;SDS011;61972;19.480;-99.240;2023-01-16T06:19:53;12.48;;;9.50;;
73672;SDS011;61972;19.480;-99.240;2023-01-16T06:22:19;13.43;;;9.50;;
73672;SDS011;61972;19.480;-99.240;2023-01-16T06:24:45;14.20;;;10.20;;
73672;SDS011;61972;19.480;-99.240;2023-01-16T06:27:11;14.98;;;10.27;;
73672;SDS011;61972;19.480;-99.240;2023-01-16T06:29:37;15.45;;;9.82;;
73672;SDS011;61972;19.480;-99.240;2023-01-16T06:32:04;14.55;;;10.45;;
73672;SDS011;61972;19.480;-99.240;2023-01-16T06:34:30;15.47;;;9.73;;
73672;SDS011;61972;19.480;-99.240;2023-01-16T06:36:56;18.08;;;10.00;;
73672;SDS011;61972;19.480;-99.240;2023-01-16T06:39:22;14.50;;;10.07;;
73672;SDS011;61972;19.480;-99.240;2023-01-16T06:41:48;18.60;;;10.57;;
73672;SDS011;61972;19.480;-99.240;2023-01-16T06:44:14;12.07;;;9.43;;
73672;SDS011;61972;19.480;-99.240;2023-01-16T06:46:41;14.00;;;9.40;;
73672;SDS011;61972;19.480;-99.240;2023-01-16T06:49:08;14.30;;;10.07;;
73672;SDS011;61972;19.480;-99.240;2023-01-16T06:51:35;16.67;;;10.43;;
73672;SDS011;61972;19.480;-99.240;2023-01-16T06:54:02;15.27;;;9.85;;
73672;SDS011;61972;19.480;-99.240;2023-01-16T06:56:28;17.80;;;10.35;;
73672;SDS011;61972;19.480;-99.240;2023-01-16T06:58:55;12.77;;;9.03;;
73672;SDS011;61972;19.480;-99.240;2023-01-16T07:01:21;16.48;;;9.57;;
73672;SDS011;61972;19.480;-99.240;2023-01-16T07:03:47;18.20;;;10.23;;
73672;SDS011;61972;19.480;-99.240;2023-01-16T07:06:13;41.45;;;20.80;;
73672;SDS011;61972;19.480;-99.240;2023-01-16T07:08:39;117.20;;;47.60;;
73672;SDS011;61972;19.480;-99.240;2023-01-16T07:11:05;203.57;;;81.27;;
73672;SDS011;61972;19.480;-99.240;2023-01-16T07:13:32;225.70;;;91.07;;
73672;SDS011;61972;19.480;-99.240;2023-01-16T07:15:58;178.88;;;71.40;;
73672;SDS011;61972;19.480;-99.240;2023-01-16T07:18:43;168.32;;;66.15;;
73672;SDS011;61972;19.480;-99.240;2023-01-16T07:21:35;153.27;;;63.00;;
73672;SDS011;61972;19.480;-99.240;2023-01-16T07:24:23;196.97;;;77.13;;
73672;SDS011;61972;19.480;-99.240;2023-01-16T07:26:58;198.65;;;79.10;;
73672;SDS011;61972;19.480;-99.240;2023-01-16T07:29:26;246.13;;;95.07;;
73672;SDS011;61972;19.480;-99.240;2023-01-16T07:31:55;238.95;;;97.40;;
73672;SDS011;61972;19.480;-99.240;2023-01-16T07:34:22;236.80;;;95.55;;
73672;SDS011;61972;19.480;-99.240;2023-01-16T07:36:48;250.87;;;99.27;;
73672;SDS011;61972;19.480;-99.240;2023-01-16T07:39:14;185.10;;;72.30;;
73672;SDS011;61972;19.480;-99.240;2023-01-16T07:41:40;313.95;;;126.18;;
73672;SDS011;61972;19.480;-99.240;2023-01-16T07:44:06;318.35;;;129.57;;
73672;SDS011;61972;19.480;-99.240;2023-01-16T07:46:32;392.20;;;166.25;;
73672;SDS011;61972;19.480;-99.240;2023-01-16T07:48:58;378.10;;;151.83;;
73672;SDS011;61972;19.480;-99.240;2023-01-16T07:51:24;353.30;;;140.65;;
73672;SDS011;61972;19.480;-99.240;2023-01-16T07:53:51;447.10;;;178.75;;
73672;SDS011;61972;19.480;-99.240;2023-01-16T07:56:17;357.67;;;146.07;;
73672;SDS011;61972;19.480;-99.240;2023-01-16T07:58:43;374.65;;;151.38;;
73672;SDS011;61972;19.480;-99.240;2023-01-16T08:01:10;330.67;;;135.10;;
73672;SDS011;61972;19.480;-99.240;2023-01-16T08:03:36;307.20;;;125.95;;
73672;SDS011;61972;19.480;-99.240;2023-01-16T08:06:03;262.17;;;107.60;;
73672;SDS011;61972;19.480;-99.240;2023-01-16T08:08:30;264.35;;;107.53;;
73672;SDS011;61972;19.480;-99.240;2023-01-16T08:10:57;274.98;;;112.93;;
73672;SDS011;61972;19.480;-99.240;2023-01-16T08:13:45;332.20;;;134.93;;
73672;SDS011;61972;19.480;-99.240;2023-01-16T08:16:11;363.98;;;145.65;;
73672;SDS011;61972;19.480;-99.240;2023-01-16T08:18:37;367.95;;;149.38;;
73672;SDS011;61972;19.480;-99.240;2023-01-16T08:21:03;341.30;;;139.02;;
73672;SDS011;61972;19.480;-99.240;2023-01-16T08:23:29;338.75;;;137.73;;
73672;SDS011;61972;19.480;-99.240;2023-01-16T08:25:57;330.97;;;129.53;;
73672;SDS011;61972;19.480;-99.240;2023-01-16T08:28:25;279.83;;;113.07;;
73672;SDS011;61972;19.480;-99.240;2023-01-16T08:30:52;377.75;;;152.30;;
73672;SDS011;61972;19.480;-99.240;2023-01-16T08:33:18;361.63;;;140.93;;
73672;SDS011;61972;19.480;-99.240;2023-01-16T08:35:44;294.38;;;117.03;;
73672;SDS011;61972;19.480;-99.240;2023-01-16T08:38:10;311.60;;;124.87;;
73672;SDS011;61972;19.480;-99.240;2023-01-16T08:40:36;307.33;;;125.47;;
73672;SDS011;61972;19.480;-99.240;2023-01-16T08:43:03;290.40;;;114.53;;
73672;SDS011;61972;19.480;-99.240;2023-01-16T08:45:47;239.05;;;95.65;;
73672;SDS011;61972;19.480;-99.240;2023-01-16T08:48:31;231.52;;;90.43;;
73672;SDS011;61972;19.480;-99.240;2023-01-16T08:51:17;215.37;;;87.03;;
73672;SDS011;61972;19.480;-99.240;2023-01-16T08:53:49;203.27;;;78.90;;
73672;SDS011;61972;19.480;-99.240;2023-01-16T08:56:15;192.57;;;76.97;;
73672;SDS011;61972;19.480;-99.240;2023-01-16T08:58:41;167.82;;;69.60;;
73672;SDS011;61972;19.480;-99.240;2023-01-16T09:01:07;167.38;;;70.28;;
73672;SDS011;61972;19.480;-99.240;2023-01-16T09:03:34;164.23;;;65.97;;
73672;SDS011;61972;19.480;-99.240;2023-01-16T09:06:00;173.73;;;71.45;;
73672;SDS011;61972;19.480;-99.240;2023-01-16T09:08:27;228.10;;;97.25;;
73672;SDS011;61972;19.480;-99.240;2023-01-16T09:10:53;270.42;;;108.53;;
73672;SDS011;61972;19.480;-99.240;2023-01-16T09:13:37;256.27;;;106.40;;
73672;SDS011;61972;19.480;-99.240;2023-01-16T09:16:22;221.67;;;88.13;;
73672;SDS011;61972;19.480;-99.240;2023-01-16T09:18:49;214.52;;;86.20;;
73672;SDS011;61972;19.480;-99.240;2023-01-16T09:21:16;218.93;;;90.22;;
73672;SDS011;61972;19.480;-99.240;2023-01-16T09:23:49;213.20;;;86.38;;
73672;SDS011;61972;19.480;-99.240;2023-01-16T09:26:16;190.95;;;77.57;;
73672;SDS011;61972;19.480;-99.240;2023-01-16T09:28:42;169.47;;;69.13;;
73672;SDS011;61972;19.480;-99.240;2023-01-16T09:31:09;162.85;;;67.50;;
73672;SDS011;61972;19.480;-99.240;2023-01-16T09:33:35;171.80;;;67.85;;
73672;SDS011;61972;19.480;-99.240;2023-01-16T09:36:02;150.75;;;62.03;;
73672;SDS011;61972;19.480;-99.240;2023-01-16T09:38:29;139.75;;;57.75;;
73672;SDS011;61972;19.480;-99.240;2023-01-16T09:40:56;133.87;;;53.23;;
73672;SDS011;61972;19.480;-99.240;2023-01-16T09:51:14;111.45;;;46.08;;
73672;SDS011;61972;19.480;-99.240;2023-01-16T09:53:48;95.80;;;42.30;;
73672;SDS011;61972;19.480;-99.240;2023-01-16T09:56:41;89.72;;;38.25;;
73672;SDS011;61972;19.480;-99.240;2023-01-16T10:02:09;84.05;;;35.42;;
73672;SDS011;61972;19.480;-99.240;2023-01-16T10:04:48;73.95;;;33.75;;
73672;SDS011;61972;19.480;-99.240;2023-01-16T10:15:45;76.97;;;33.53;;
73672;SDS011;61972;19.480;-99.240;2023-01-16T10:18:42;71.57;;;32.88;;
73672;SDS011;61972;19.480;-99.240;2023-01-16T10:27:27;62.10;;;28.77;;
73672;SDS011;61972;19.480;-99.240;2023-01-16T10:30:04;58.63;;;28.52;;
73672;SDS011;61972;19.480;-99.240;2023-01-16T10:32:38;60.53;;;25.63;;
73672;SDS011;61972;19.480;-99.240;2023-01-16T10:35:18;52.90;;;25.80;;
73672;SDS011;61972;19.480;-99.240;2023-01-16T10:37:58;49.95;;;23.38;;
73672;SDS011;61972;19.480;-99.240;2023-01-16T10:40:38;48.30;;;24.13;;
73672;SDS011;61972;19.480;-99.240;2023-01-16T10:43:10;45.97;;;24.08;;
73672;SDS011;61972;19.480;-99.240;2023-01-16T10:46:06;42.92;;;22.67;;
73672;SDS011;61972;19.480;-99.240;2023-01-16T10:48:58;44.07;;;22.57;;
73672;SDS011;61972;19.480;-99.240;2023-01-16T10:51:43;46.08;;;21.58;;
73672;SDS011;61972;19.480;-99.240;2023-01-16T10:54:09;43.58;;;20.55;;
73672;SDS011;61972;19.480;-99.240;2023-01-16T10:56:35;41.70;;;20.35;;
73672;SDS011;61972;19.480;-99.240;2023-01-16T10:59:11;42.58;;;21.15;;
73672;SDS011;61972;19.480;-99.240;2023-01-16T11:01:39;38.27;;;20.10;;
73672;SDS011;61972;19.480;-99.240;2023-01-16T11:04:09;39.08;;;18.83;;
73672;SDS011;61972;19.480;-99.240;2023-01-16T11:06:36;36.25;;;18.58;;
73672;SDS011;61972;19.480;-99.240;2023-01-16T11:09:07;35.60;;;19.15;;
73672;SDS011;61972;19.480;-99.240;2023-01-16T11:11:42;32.85;;;18.17;;
73672;SDS011;61972;19.480;-99.240;2023-01-16T11:14:33;35.03;;;17.30;;
73672;SDS011;61972;19.480;-99.240;2023-01-16T11:17:22;29.70;;;16.98;;
73672;SDS011;61972;19.480;-99.240;2023-01-16T11:20:07;33.13;;;16.70;;
73672;SDS011;61972;19.480;-99.240;2023-01-16T11:22:39;27.58;;;16.15;;
73672;SDS011;61972;19.480;-99.240;2023-01-16T11:25:05;29.95;;;16.27;;
73672;SDS011;61972;19.480;-99.240;2023-01-16T11:27:39;33.60;;;15.27;;
73672;SDS011;61972;19.480;-99.240;2023-01-16T11:30:06;36.47;;;15.45;;
73672;SDS011;61972;19.480;-99.240;2023-01-16T11:32:39;32.78;;;14.90;;
73672;SDS011;61972;19.480;-99.240;2023-01-16T11:35:13;29.55;;;14.77;;
73672;SDS011;61972;19.480;-99.240;2023-01-16T11:37:44;32.58;;;16.25;;
73672;SDS011;61972;19.480;-99.240;2023-01-16T11:40:15;27.23;;;14.73;;
73672;SDS011;61972;19.480;-99.240;2023-01-16T11:42:54;27.83;;;15.15;;
73672;SDS011;61972;19.480;-99.240;2023-01-16T11:45:46;24.75;;;13.35;;
73672;SDS011;61972;19.480;-99.240;2023-01-16T11:49:14;25.13;;;14.13;;
73672;SDS011;61972;19.480;-99.240;2023-01-16T11:51:19;28.30;;;14.52;;
73672;SDS011;61972;19.480;-99.240;2023-01-16T11:53:49;23.40;;;13.10;;
73672;SDS011;61972;19.480;-99.240;2023-01-16T12:10:49;27.58;;;13.75;;
73672;SDS011;61972;19.480;-99.240;2023-01-16T12:16:59;23.92;;;12.85;;
73672;SDS011;61972;19.480;-99.240;2023-01-16T12:31:13;23.25;;;12.32;;
73672;SDS011;61972;19.480;-99.240;2023-01-16T12:33:57;22.98;;;12.43;;
73672;SDS011;61972;19.480;-99.240;2023-01-16T12:39:40;22.65;;;11.88;;
73672;SDS011;61972;19.480;-99.240;2023-01-16T12:51:00;21.47;;;12.07;;
73672;SDS011;61972;19.480;-99.240;2023-01-16T12:59:28;19.60;;;10.95;;
73672;SDS011;61972;19.480;-99.240;2023-01-16T13:04:39;19.77;;;11.20;;
73672;SDS011;61972;19.480;-99.240;2023-01-16T13:07:13;20.92;;;11.73;;
73672;SDS011;61972;19.480;-99.240;2023-01-16T13:09:56;18.38;;;10.95;;
73672;SDS011;61972;19.480;-99.240;2023-01-16T13:12:45;20.25;;;10.65;;
73672;SDS011;61972;19.480;-99.240;2023-01-16T13:15:32;19.42;;;10.82;;
73672;SDS011;61972;19.480;-99.240;2023-01-16T13:18:02;19.53;;;11.07;;
73672;SDS011;61972;19.480;-99.240;2023-01-16T13:20:35;17.02;;;9.63;;
73672;SDS011;61972;19.480;-99.240;2023-01-16T13:23:09;22.23;;;11.13;;
73672;SDS011;61972;19.480;-99.240;2023-01-16T13:25:43;18.98;;;10.50;;
73672;SDS011;61972;19.480;-99.240;2023-01-16T13:28:17;18.77;;;10.63;;
73672;SDS011;61972;19.480;-99.240;2023-01-16T13:30:44;17.37;;;10.07;;
73672;SDS011;61972;19.480;-99.240;2023-01-16T13:33:20;18.52;;;10.35;;
73672;SDS011;61972;19.480;-99.240;2023-01-16T13:35:53;16.27;;;9.48;;
73672;SDS011;61972;19.480;-99.240;2023-01-16T13:41:16;17.83;;;10.48;;
73672;SDS011;61972;19.480;-99.240;2023-01-16T13:43:56;15.70;;;9.67;;
73672;SDS011;61972;19.480;-99.240;2023-01-16T13:46:50;17.65;;;9.35;;
73672;SDS011;61972;19.480;-99.240;2023-01-16T13:49:23;17.10;;;10.02;;
73672;SDS011;61972;19.480;-99.240;2023-01-16T13:51:51;17.65;;;9.55;;
73672;SDS011;61972;19.480;-99.240;2023-01-16T13:54:22;16.55;;;9.63;;
73672;SDS011;61972;19.480;-99.240;2023-01-16T13:57:12;16.40;;;9.40;;
73672;SDS011;61972;19.480;-99.240;2023-01-16T14:02:23;15.15;;;9.30;;
73672;SDS011;61972;19.480;-99.240;2023-01-16T14:10:43;16.03;;;9.03;;
73672;SDS011;61972;19.480;-99.240;2023-01-16T14:15:50;15.10;;;9.05;;
73672;SDS011;61972;19.480;-99.240;2023-01-16T14:18:38;15.10;;;8.77;;
73672;SDS011;61972;19.480;-99.240;2023-01-16T14:21:21;15.35;;;8.90;;
73672;SDS011;61972;19.480;-99.240;2023-01-16T14:23:50;15.53;;;8.77;;
73672;SDS011;61972;19.480;-99.240;2023-01-16T14:29:26;17.52;;;8.98;;
73672;SDS011;61972;19.480;-99.240;2023-01-16T14:34:57;14.18;;;8.75;;
73672;SDS011;61972;19.480;-99.240;2023-01-16T14:37:43;14.27;;;8.30;;
73672;SDS011;61972;19.480;-99.240;2023-01-16T14:40:20;15.13;;;8.60;;
73672;SDS011;61972;19.480;-99.240;2023-01-16T14:43:08;13.82;;;8.40;;
73672;SDS011;61972;19.480;-99.240;2023-01-16T14:53:12;14.53;;;8.27;;
73672;SDS011;61972;19.480;-99.240;2023-01-16T14:55:46;14.20;;;7.88;;
73672;SDS011;61972;19.480;-99.240;2023-01-16T14:58:15;14.27;;;8.05;;
73672;SDS011;61972;19.480;-99.240;2023-01-16T15:00:49;16.08;;;9.05;;
73672;SDS011;61972;19.480;-99.240;2023-01-16T15:03:22;12.88;;;7.60;;
73672;SDS011;61972;19.480;-99.240;2023-01-16T15:05:55;12.17;;;7.33;;
73672;SDS011;61972;19.480;-99.240;2023-01-16T15:08:25;14.63;;;8.30;;
73672;SDS011;61972;19.480;-99.240;2023-01-16T15:10:54;13.80;;;8.30;;
73672;SDS011;61972;19.480;-99.240;2023-01-16T15:13:23;13.48;;;7.47;;
73672;SDS011;61972;19.480;-99.240;2023-01-16T15:18:27;12.87;;;7.57;;
73672;SDS011;61972;19.480;-99.240;2023-01-16T15:21:16;13.45;;;7.60;;
73672;SDS011;61972;19.480;-99.240;2023-01-16T15:24:04;13.45;;;7.78;;
73672;SDS011;61972;19.480;-99.240;2023-01-16T15:29:49;12.43;;;7.70;;
73672;SDS011;61972;19.480;-99.240;2023-01-16T15:32:03;13.10;;;7.10;;
73672;SDS011;61972;19.480;-99.240;2023-01-16T15:34:37;12.55;;;7.53;;
73672;SDS011;61972;19.480;-99.240;2023-01-16T15:37:11;13.43;;;7.53;;
73672;SDS011;61972;19.480;-99.240;2023-01-16T15:39:47;11.82;;;6.78;;
73672;SDS011;61972;19.480;-99.240;2023-01-16T15:42:15;12.05;;;7.20;;
73672;SDS011;61972;19.480;-99.240;2023-01-16T15:45:35;12.17;;;7.10;;
73672;SDS011;61972;19.480;-99.240;2023-01-16T15:48:19;12.38;;;6.93;;
73672;SDS011;61972;19.480;-99.240;2023-01-16T15:50:54;11.98;;;6.95;;
73672;SDS011;61972;19.480;-99.240;2023-01-16T15:53:24;12.30;;;7.07;;
73672;SDS011;61972;19.480;-99.240;2023-01-16T15:56:00;12.98;;;7.20;;
73672;SDS011;61972;19.480;-99.240;2023-01-16T15:58:29;12.57;;;6.87;;
73672;SDS011;61972;19.480;-99.240;2023-01-16T16:00:57;11.10;;;7.13;;
73672;SDS011;61972;19.480;-99.240;2023-01-16T16:03:29;11.50;;;6.88;;
73672;SDS011;61972;19.480;-99.240;2023-01-16T16:06:04;12.80;;;7.53;;
73672;SDS011;61972;19.480;-99.240;2023-01-16T16:08:34;13.32;;;7.82;;
73672;SDS011;61972;19.480;-99.240;2023-01-16T16:11:05;10.63;;;7.17;;
73672;SDS011;61972;19.480;-99.240;2023-01-16T16:13:51;12.90;;;7.80;;
73672;SDS011;61972;19.480;-99.240;2023-01-16T16:16:20;13.45;;;7.75;;
73672;SDS011;61972;19.480;-99.240;2023-01-16T16:19:07;14.98;;;8.07;;
73672;SDS011;61972;19.480;-99.240;2023-01-16T16:21:52;17.15;;;8.75;;
73672;SDS011;61972;19.480;-99.240;2023-01-16T16:24:37;17.17;;;8.70;;
73672;SDS011;61972;19.480;-99.240;2023-01-16T16:27:07;16.55;;;8.27;;
73672;SDS011;61972;19.480;-99.240;2023-01-16T16:29:39;14.07;;;7.85;;
73672;SDS011;61972;19.480;-99.240;2023-01-16T16:32:10;13.15;;;8.25;;
73672;SDS011;61972;19.480;-99.240;2023-01-16T16:34:41;16.30;;;9.10;;
73672;SDS011;61972;19.480;-99.240;2023-01-16T16:37:18;14.70;;;8.73;;
73672;SDS011;61972;19.480;-99.240;2023-01-16T16:47:43;14.23;;;9.07;;
73672;SDS011;61972;19.480;-99.240;2023-01-16T16:53:29;15.57;;;10.23;;
73672;SDS011;61972;19.480;-99.240;2023-01-16T16:55:51;18.88;;;10.07;;
73672;SDS011;61972;19.480;-99.240;2023-01-16T16:58:20;16.42;;;10.48;;
73672;SDS011;61972;19.480;-99.240;2023-01-16T17:00:48;16.38;;;10.70;;
73672;SDS011;61972;19.480;-99.240;2023-01-16T17:05:50;15.35;;;10.90;;
73672;SDS011;61972;19.480;-99.240;2023-01-16T17:08:19;18.25;;;12.15;;
73672;SDS011;61972;19.480;-99.240;2023-01-16T17:10:50;17.55;;;12.10;;
73672;SDS011;61972;19.480;-99.240;2023-01-16T17:13:17;19.80;;;12.85;;
73672;SDS011;61972;19.480;-99.240;2023-01-16T17:15:44;24.27;;;13.43;;